Thunder radar more information blitzortung!


Löydät sääaseman tiedot myös:

European Weather Network

Finland Weather Exchange

Weather Underground

AWEKAS



Weather Underground säähistoriasivu

Päivittäin yhteenveto Heinäkuu 16, 2017 Yksiköt:  Englantilaiset    Metriset   Molemmat
« Edellinen Päivä
Seuraava Päivä »
Päivittäin Viikoittain Kuukausittain Vuosittain Mukautettu
  Korkea: Matala: Keskiarvo:
Lämpötila: TemperatureC °F 4.7 °F 15.6 °F
Kastepiste: DewpointC °F 3.8 °F 8.1 °F
Kosteus: Humidity % 40 % 64 %
Tuulen nopeus: WindSpeedKMH mph 0.0 mph 3.3 mph
Tuulenpuuska: WindSpeedGustKMH mph - -
Tuuli:- - SSW
Ilmanpaine: PressurehPa in 1007.7 in -
Sade: 0.0 in    
Historical Graphs
 
 
Taulukkotiedot Heinäkuu 16, 2017
Aika Lämpötila Kastepiste Ilmanpaine Tuuli Tuulen nopeus Tuulenpuuska Kosteus Sademäärä (tunneittain)
TemperatureC °F DewpointC °F PressurehPa in Calm     Humidity % HourlyPrecipMM in
00:00 9.9 °F 7.3 °F 1016.1 in Calm     84 % 0.0 in
00:15 9.3 °F 6.9 °F 1016.1 in Calm     85 % 0.0 in
00:30 8.9 °F 6.7 °F 1016.1 in Calm     86 % 0.0 in
00:45 8.6 °F 7.4 °F 1016.1 in Calm     92 % 0.0 in
01:00 8.1 °F 6.2 °F 1016.5 in Calm     88 % 0.0 in
01:15 7.8 °F 6.3 °F 1016.5 in Calm     90 % 0.0 in
01:30 7.4 °F 5.7 °F 1016.5 in Calm     89 % 0.0 in
01:45 6.9 °F 5.4 °F 1016.5 in Calm     90 % 0.0 in
02:00 6.6 °F 5.2 °F 1016.5 in Calm     91 % 0.0 in
02:15 6.3 °F 5.0 °F 1016.5 in Calm     91 % 0.0 in
02:30 6.2 °F 5.0 °F 1016.1 in Calm     92 % 0.0 in
02:45 5.8 °F 4.6 °F 1016.5 in Calm     92 % 0.0 in
03:00 5.7 °F 4.6 °F 1016.5 in Calm     93 % 0.0 in
03:15 5.6 °F 4.5 °F 1016.5 in Calm     93 % 0.0 in
03:30 5.4 °F 4.3 °F 1016.5 in Calm     93 % 0.0 in
03:45 5.2 °F 4.2 °F 1016.5 in Calm     93 % 0.0 in
04:00 5.1 °F 4.0 °F 1016.5 in Calm     93 % 0.0 in
04:15 5.0 °F 4.1 °F 1016.5 in Calm     94 % 0.0 in
04:30 4.9 °F 4.0 °F 1016.5 in Calm     94 % 0.0 in
04:45 4.7 °F 3.8 °F 1016.5 in Calm     94 % 0.0 in
05:00 4.9 °F 4.2 °F 1016.1 in Calm     95 % 0.0 in
05:15 5.2 °F 4.4 °F 1016.1 in Calm     95 % 0.0 in
05:30 5.3 °F 4.6 °F 1016.1 in Calm     95 % 0.0 in
05:45 5.4 °F 4.7 °F 1016.1 in Calm     95 % 0.0 in
06:00 5.8 °F 5.2 °F 1016.1 in Calm   1.6 mph 96 % 0.0 in
06:15 6.2 °F 5.6 °F 1016.1 in Calm     96 % 0.0 in
06:30 6.8 °F 6.2 °F 1015.8 in Calm   1.6 mph 96 % 0.0 in
06:45 7.3 °F 6.6 °F 1015.8 in Calm     95 % 0.0 in
07:00 8.1 °F 7.0 °F 1015.8 in Calm     93 % 0.0 in
07:15 8.8 °F 7.4 °F 1015.8 in Calm     91 % 0.0 in
07:30 9.6 °F 7.9 °F 1015.5 in Calm   1.6 mph 89 % 0.0 in
07:45 10.7 °F 8.2 °F 1015.5 in Calm   6.4 mph 85 % 0.0 in
08:00 11.7 °F 8.7 °F 1015.5 in Calm   4.8 mph 82 % 0.0 in
08:15 12.7 °F 9.1 °F 1015.5 in Calm   8.0 mph 79 % 0.0 in
08:30 13.8 °F 9.1 °F 1015.1 in SSE 1.6 mph 9.7 mph 73 % 0.0 in
08:45 14.9 °F 8.8 °F 1015.1 in SSE 3.2 mph 12.9 mph 67 % 0.0 in
09:00 15.9 °F 9.1 °F 1014.8 in South 3.2 mph 11.3 mph 64 % 0.0 in
09:15 16.7 °F 9.3 °F 1014.8 in South 4.8 mph 14.5 mph 62 % 0.0 in
09:30 17.2 °F 9.1 °F 1014.8 in South 3.2 mph 12.9 mph 59 % 0.0 in
09:45 17.9 °F 10.1 °F 1014.4 in SW 1.6 mph 12.9 mph 60 % 0.0 in
10:00 18.4 °F 9.5 °F 1014.4 in South 4.8 mph 14.5 mph 56 % 0.0 in
10:15 18.8 °F 9.6 °F 1014.4 in SSE 4.8 mph 20.9 mph 55 % 0.0 in
10:30 19.3 °F 10.0 °F 1014.1 in South 6.4 mph 17.7 mph 55 % 0.0 in
10:45 19.7 °F 10.1 °F 1014.1 in SSW 4.8 mph 17.7 mph 54 % 0.0 in
11:00 20.2 °F 10.6 °F 1014.1 in South 4.8 mph 17.7 mph 54 % 0.0 in
11:15 20.8 °F 10.6 °F 1014.1 in South 4.8 mph 17.7 mph 52 % 0.0 in
11:30 21.4 °F 10.8 °F 1013.8 in South 3.2 mph 12.9 mph 51 % 0.0 in
11:45 21.7 °F 10.2 °F 1013.8 in South 6.4 mph 17.7 mph 48 % 0.0 in
12:00 21.8 °F 10.6 °F 1013.4 in SSW 8.0 mph 16.1 mph 49 % 0.0 in
12:15 22.0 °F 11.1 °F 1013.4 in South 8.0 mph 22.5 mph 50 % 0.0 in
12:30 21.9 °F 11.0 °F 1013.4 in South 9.7 mph 25.7 mph 50 % 0.0 in
12:45 21.9 °F 11.6 °F 1013.4 in SSW 8.0 mph 25.7 mph 52 % 0.0 in
13:00 22.1 °F 11.8 °F 1013.1 in SSW 9.7 mph 22.5 mph 52 % 0.0 in
13:15 22.7 °F 11.1 °F 1013.1 in SSW 8.0 mph 22.5 mph 48 % 0.0 in
13:30 22.6 °F 11.4 °F 1012.8 in SSW 8.0 mph 19.3 mph 49 % 0.0 in
13:45 23.1 °F 11.2 °F 1012.8 in SSW 8.0 mph 19.3 mph 47 % 0.0 in
14:00 23.3 °F 10.7 °F 1012.8 in SSW 8.0 mph 17.7 mph 45 % 0.0 in
14:15 23.3 °F 10.0 °F 1012.4 in South 8.0 mph 20.9 mph 43 % 0.0 in
14:30 23.2 °F 9.9 °F 1012.4 in SSW 8.0 mph 24.1 mph 43 % 0.0 in
14:45 23.3 °F 9.7 °F 1012.1 in SSW 8.0 mph 19.3 mph 42 % 0.0 in
15:00 23.4 °F 10.1 °F 1012.1 in SW 6.4 mph 16.1 mph 43 % 0.0 in
15:15 23.8 °F 9.4 °F 1011.7 in SSW 6.4 mph 19.3 mph 40 % 0.0 in
15:30 23.4 °F 10.1 °F 1011.7 in SSW 8.0 mph 17.7 mph 43 % 0.0 in
15:45 23.8 °F 10.5 °F 1011.4 in SSW 8.0 mph 22.5 mph 43 % 0.0 in
16:00 23.8 °F 9.7 °F 1011.4 in SSW 8.0 mph 22.5 mph 41 % 0.0 in
16:15 23.3 °F 9.7 °F 1011.4 in SSW 6.4 mph 20.9 mph 42 % 0.0 in
16:30 23.3 °F 10.7 °F 1011.1 in SSW 8.0 mph 19.3 mph 45 % 0.0 in
16:45 23.1 °F 10.1 °F 1011.1 in SSW 8.0 mph 19.3 mph 44 % 0.0 in
17:00 23.2 °F 9.9 °F 1011.1 in SSW 6.4 mph 17.7 mph 43 % 0.0 in
17:15 23.2 °F 9.9 °F 1011.1 in SSW 8.0 mph 19.3 mph 43 % 0.0 in
17:30 23.2 °F 9.6 °F 1011.1 in SSW 6.4 mph 19.3 mph 42 % 0.0 in
17:45 23.1 °F 9.1 °F 1010.7 in SSW 8.0 mph 24.1 mph 41 % 0.0 in
18:00 22.8 °F 9.5 °F 1010.7 in SSW 8.0 mph 24.1 mph 43 % 0.0 in
18:15 22.6 °F 9.4 °F 1010.4 in SW 6.4 mph 14.5 mph 43 % 0.0 in
18:30 22.1 °F 9.2 °F 1010.4 in SSW 6.4 mph 14.5 mph 44 % 0.0 in
18:45 22.0 °F 10.2 °F 1010.4 in SW 3.2 mph 12.9 mph 47 % 0.0 in
19:00 21.5 °F 10.3 °F 1010.0 in SSW 4.8 mph 16.1 mph 49 % 0.0 in
19:15 20.9 °F 9.2 °F 1010.0 in SSW 4.8 mph 17.7 mph 47 % 0.0 in
19:30 20.5 °F 9.1 °F 1010.0 in SSW 6.4 mph 20.9 mph 48 % 0.0 in
19:45 20.4 °F 9.9 °F 1009.7 in SSW 3.2 mph 14.5 mph 51 % 0.0 in
20:00 20.3 °F 9.9 °F 1009.7 in SSW 3.2 mph 11.3 mph 51 % 0.0 in
20:15 20.1 °F 9.4 °F 1009.7 in SSW 4.8 mph 17.7 mph 50 % 0.0 in
20:30 19.9 °F 9.2 °F 1009.4 in SSW 4.8 mph 12.9 mph 50 % 0.0 in
20:45 19.6 °F 8.0 °F 1009.4 in SSW 6.4 mph 14.5 mph 47 % 0.0 in
21:00 19.3 °F 7.1 °F 1009.0 in SSW 6.4 mph 17.7 mph 45 % 0.0 in
21:15 19.0 °F 7.1 °F 1009.0 in SW 3.2 mph 12.9 mph 46 % 0.0 in
21:30 18.7 °F 7.4 °F 1008.7 in SSW 1.6 mph 6.4 mph 48 % 0.0 in
21:45 18.4 °F 8.1 °F 1008.7 in Calm   4.8 mph 51 % 0.0 in
22:00 18.1 °F 7.8 °F 1008.4 in Calm   6.4 mph 51 % 0.0 in
22:15 17.9 °F 7.9 °F 1008.4 in Calm   3.2 mph 52 % 0.0 in
22:30 17.7 °F 8.0 °F 1008.0 in Calm   4.8 mph 53 % 0.0 in
22:45 17.3 °F 7.9 °F 1008.0 in Calm   4.8 mph 54 % 0.0 in
23:00 16.9 °F 8.4 °F 1008.0 in Calm   3.2 mph 57 % 0.0 in
23:30 16.6 °F 8.5 °F 1007.7 in Calm   3.2 mph 59 % 0.0 in
23:45 16.4 °F 8.8 °F 1007.7 in Calm   1.6 mph 61 % 0.0 in
Esan sääasema
Terveisin Weather Underground - 2.75 mb

Alkuperäinen skripti  Jim McMurry - jmcmurry@mwt.net Sovitettu myös templatelle  Wim van der Kuil - Leuven-Template.eu

Laitteet joita käytämme:

Sääasema
Davis VP2

Sääasemaohjelma
Cumulus

Sääaseman tietokone
Asus EeePC

Palveluntarjoaja
Suncomet

Davis VP2

Cumulus

Asus EeePC

Suncomet